createdAt,value
2022-09-09T00:01:03.617Z,16.00
2022-09-09T00:03:46.258Z,16.00
2022-09-09T00:06:21.872Z,16.00
2022-09-09T00:09:13.752Z,16.00
2022-09-09T00:11:57.804Z,16.00
2022-09-09T00:14:33.579Z,16.00
2022-09-09T00:17:03.633Z,16.00
2022-09-09T00:19:34.501Z,16.00
2022-09-09T00:22:08.618Z,16.00
2022-09-09T00:24:54.355Z,16.00
2022-09-09T00:27:48.634Z,16.00
2022-09-09T00:30:23.537Z,16.00
2022-09-09T00:33:00.708Z,16.00
2022-09-09T00:35:32.608Z,16.00
2022-09-09T00:38:02.858Z,16.00
2022-09-09T00:40:38.551Z,16.00
2022-09-09T00:43:08.366Z,16.10
2022-09-09T00:46:13.328Z,16.10
2022-09-09T00:49:03.063Z,16.10
2022-09-09T00:51:58.315Z,16.10
2022-09-09T00:54:52.999Z,16.10
2022-09-09T00:57:24.879Z,16.00
2022-09-09T01:00:16.171Z,16.00
2022-09-09T01:03:21.761Z,16.00
2022-09-09T01:05:54.992Z,16.00
2022-09-09T01:08:34.404Z,16.00
2022-09-09T01:11:01.247Z,16.00
2022-09-09T01:13:31.410Z,16.00
2022-09-09T01:16:03.576Z,16.00
2022-09-09T01:18:35.633Z,16.00
2022-09-09T01:21:08.395Z,16.00
2022-09-09T01:23:53.125Z,16.10
2022-09-09T01:26:36.302Z,16.10
2022-09-09T01:29:03.060Z,16.10
2022-09-09T01:31:53.752Z,16.10
2022-09-09T01:34:21.132Z,16.10
2022-09-09T01:37:00.411Z,16.10
2022-09-09T01:39:27.290Z,16.10
2022-09-09T01:41:54.578Z,16.00
2022-09-09T01:44:21.742Z,16.10
2022-09-09T01:46:48.422Z,16.10
2022-09-09T01:49:15.491Z,16.10
2022-09-09T01:51:42.518Z,16.10
2022-09-09T01:54:09.358Z,16.10
2022-09-09T01:56:48.054Z,16.10
2022-09-09T01:59:20.681Z,16.00
2022-09-09T02:02:09.414Z,16.00
2022-09-09T02:05:20.765Z,16.00
2022-09-09T02:07:51.302Z,16.00
2022-09-09T02:10:23.423Z,15.90
2022-09-09T02:12:56.959Z,15.90
2022-09-09T02:15:25.199Z,16.00
2022-09-09T02:17:51.851Z,16.00
2022-09-09T02:20:19.015Z,16.00
2022-09-09T02:22:45.803Z,15.90
2022-09-09T02:25:14.093Z,15.90
2022-09-09T02:27:42.308Z,15.70
2022-09-09T02:30:09.701Z,15.60
2022-09-09T02:32:36.608Z,15.50
2022-09-09T02:35:18.604Z,15.40
2022-09-09T02:37:49.302Z,15.40
2022-09-09T02:40:19.167Z,15.40
2022-09-09T02:42:47.543Z,15.40
2022-09-09T02:45:18.594Z,15.40
2022-09-09T02:48:24.206Z,15.40
2022-09-09T02:51:03.003Z,15.30
2022-09-09T02:54:02.535Z,15.30
2022-09-09T02:56:30.954Z,15.30
2022-09-09T02:58:58.312Z,15.30
2022-09-09T03:01:26.047Z,15.20
2022-09-09T03:03:53.227Z,15.30
2022-09-09T03:06:20.454Z,15.30
2022-09-09T03:08:49.600Z,15.20
2022-09-09T03:11:18.294Z,15.20
2022-09-09T03:13:44.942Z,15.20
2022-09-09T03:16:11.679Z,15.20
2022-09-09T03:18:38.415Z,15.20
2022-09-09T03:21:05.200Z,15.20
2022-09-09T03:23:31.914Z,15.20
2022-09-09T03:25:59.615Z,15.30
2022-09-09T03:28:31.967Z,15.20
2022-09-09T03:31:02.707Z,15.20
2022-09-09T03:33:30.425Z,15.20
2022-09-09T03:35:57.596Z,15.20
2022-09-09T03:38:27.487Z,15.20
2022-09-09T03:40:58.482Z,15.30
2022-09-09T03:43:26.919Z,15.30
2022-09-09T03:45:54.000Z,15.30
2022-09-09T03:48:20.783Z,15.30
2022-09-09T03:50:52.083Z,15.30
2022-09-09T03:53:20.249Z,15.30
2022-09-09T03:55:53.646Z,15.30
2022-09-09T03:58:20.448Z,15.30
2022-09-09T04:01:01.460Z,15.30
2022-09-09T04:03:28.830Z,15.30
2022-09-09T04:05:56.648Z,15.30
2022-09-09T04:08:23.487Z,15.30
2022-09-09T04:10:50.718Z,15.30
2022-09-09T04:13:18.620Z,15.40
2022-09-09T04:15:46.081Z,15.30
2022-09-09T04:18:14.352Z,15.40
2022-09-09T04:20:44.629Z,15.40
2022-09-09T04:23:11.313Z,15.40
2022-09-09T04:25:38.947Z,15.40
2022-09-09T04:28:05.755Z,15.40
2022-09-09T04:30:32.827Z,15.40
2022-09-09T04:32:59.503Z,15.40
2022-09-09T04:35:28.388Z,15.40
2022-09-09T04:37:55.180Z,15.40
2022-09-09T04:40:23.357Z,15.40
2022-09-09T04:42:51.481Z,15.30
2022-09-09T04:45:19.472Z,15.30
2022-09-09T04:47:46.434Z,15.20
2022-09-09T04:50:13.416Z,15.30
2022-09-09T04:52:40.213Z,15.30
2022-09-09T04:55:07.842Z,15.20
2022-09-09T04:57:35.769Z,15.20
2022-09-09T05:00:03.205Z,15.20
2022-09-09T05:02:31.745Z,15.20
2022-09-09T05:04:59.136Z,15.20
2022-09-09T05:07:27.321Z,15.20
2022-09-09T05:09:54.594Z,15.20
2022-09-09T05:12:21.423Z,15.20
2022-09-09T05:14:48.253Z,15.20
2022-09-09T05:17:16.097Z,15.20
2022-09-09T05:19:42.874Z,15.20
2022-09-09T05:22:09.681Z,15.20
2022-09-09T05:24:37.791Z,15.20
2022-09-09T05:27:06.367Z,15.20
2022-09-09T05:29:36.712Z,15.20
2022-09-09T05:32:04.155Z,15.30
2022-09-09T05:34:30.919Z,15.20
2022-09-09T05:36:57.637Z,15.30
2022-09-09T05:39:24.417Z,15.30
2022-09-09T05:41:52.189Z,15.30
2022-09-09T05:44:19.736Z,15.30
2022-09-09T05:46:47.079Z,15.30
2022-09-09T05:49:13.890Z,15.30
2022-09-09T05:51:41.266Z,15.30
2022-09-09T05:54:08.026Z,15.30
2022-09-09T05:56:34.879Z,15.30
2022-09-09T05:59:02.037Z,15.30
2022-09-09T06:01:33.814Z,15.30
2022-09-09T06:04:00.704Z,15.30
2022-09-09T06:06:28.867Z,15.30
2022-09-09T06:08:58.464Z,15.30
2022-09-09T06:11:27.497Z,15.30
2022-09-09T06:13:55.551Z,15.30
2022-09-09T06:16:26.494Z,15.40
2022-09-09T06:18:54.265Z,15.40
2022-09-09T06:21:22.462Z,15.40
2022-09-09T06:23:49.379Z,15.40
2022-09-09T06:26:20.844Z,15.50
2022-09-09T06:28:48.739Z,15.50
2022-09-09T06:31:25.845Z,15.50
2022-09-09T06:33:56.189Z,15.50
2022-09-09T06:36:24.749Z,15.50
2022-09-09T06:38:51.506Z,15.50
2022-09-09T06:41:19.696Z,15.60
2022-09-09T06:43:47.142Z,15.60
2022-09-09T06:46:18.413Z,15.60
2022-09-09T06:48:45.520Z,15.60
2022-09-09T06:51:17.477Z,15.60
2022-09-09T06:53:45.444Z,15.60
2022-09-09T06:56:17.378Z,15.60
2022-09-09T06:58:47.892Z,15.60
2022-09-09T07:01:18.486Z,15.70
2022-09-09T07:03:51.121Z,15.70
2022-09-09T07:06:20.094Z,15.70
2022-09-09T07:08:56.530Z,15.70
2022-09-09T07:11:25.466Z,15.70
2022-09-09T07:13:52.231Z,15.70
2022-09-09T07:16:19.974Z,15.80
2022-09-09T07:18:47.392Z,15.90
2022-09-09T07:21:14.992Z,15.90
2022-09-09T07:23:42.083Z,15.90
2022-09-09T07:26:22.831Z,16.00
2022-09-09T07:28:49.783Z,16.00
2022-09-09T07:31:21.486Z,16.00
2022-09-09T07:33:48.739Z,16.00
2022-09-09T07:36:16.979Z,16.10
2022-09-09T07:38:46.230Z,16.10
2022-09-09T07:41:18.227Z,16.20
2022-09-09T07:43:46.290Z,16.30
2022-09-09T07:46:13.710Z,16.30
2022-09-09T07:48:45.572Z,16.30
2022-09-09T07:51:17.863Z,16.30
2022-09-09T07:53:44.973Z,16.30
2022-09-09T07:56:13.110Z,16.30
2022-09-09T07:58:40.272Z,16.30
2022-09-09T08:01:19.047Z,16.30
2022-09-09T08:03:46.499Z,16.30
2022-09-09T08:06:13.733Z,16.40
2022-09-09T08:08:42.699Z,16.30
2022-09-09T08:11:12.556Z,16.30
2022-09-09T08:13:39.758Z,16.40
2022-09-09T08:16:12.497Z,16.50
2022-09-09T08:18:40.203Z,16.50
2022-09-09T08:21:14.732Z,16.60
2022-09-09T08:23:42.276Z,16.60
2022-09-09T08:26:28.831Z,16.70
2022-09-09T08:28:57.507Z,16.90
2022-09-09T08:31:29.010Z,17.00
2022-09-09T08:33:56.662Z,17.10
2022-09-09T08:36:25.190Z,17.10
2022-09-09T08:38:55.400Z,17.10
2022-09-09T08:41:40.313Z,17.20
2022-09-09T08:44:37.471Z,17.40
2022-09-09T08:47:20.112Z,17.50
2022-09-09T08:49:56.427Z,17.60
2022-09-09T08:52:48.232Z,17.60
2022-09-09T08:55:39.933Z,17.50
2022-09-09T08:58:21.132Z,17.50
2022-09-09T09:00:47.915Z,17.50
2022-09-09T09:03:24.464Z,17.60
2022-09-09T09:06:23.784Z,17.60
2022-09-09T09:08:56.766Z,17.40
2022-09-09T09:11:23.572Z,17.30
2022-09-09T09:13:56.571Z,17.20
2022-09-09T09:16:39.675Z,17.10
2022-09-09T09:19:06.466Z,17.00
2022-09-09T09:21:40.770Z,17.00
2022-09-09T09:24:28.323Z,17.00
2022-09-09T09:26:55.151Z,17.00
2022-09-09T09:29:22.686Z,17.10
2022-09-09T09:31:55.688Z,17.20
2022-09-09T09:34:22.527Z,17.30
2022-09-09T09:36:58.755Z,17.30
2022-09-09T09:42:18.886Z,17.50
2022-09-09T09:44:48.387Z,17.60
2022-09-09T09:47:16.594Z,17.70
2022-09-09T09:50:00.560Z,18.10
2022-09-09T09:52:29.383Z,18.30
2022-09-09T09:54:56.992Z,18.30
2022-09-09T09:57:32.825Z,18.30
2022-09-09T10:00:26.261Z,18.30
2022-09-09T10:02:53.669Z,18.30
2022-09-09T10:05:27.483Z,18.40
2022-09-09T10:08:11.897Z,18.40
2022-09-09T10:10:54.042Z,18.30
2022-09-09T10:13:39.713Z,18.30
2022-09-09T10:16:25.038Z,18.50
2022-09-09T10:19:18.603Z,18.60
2022-09-09T10:22:15.809Z,18.60
2022-09-09T10:25:07.824Z,18.70
2022-09-09T10:28:03.960Z,18.50
2022-09-09T10:30:57.516Z,18.40
2022-09-09T10:33:34.703Z,18.40
2022-09-09T10:36:24.674Z,18.40
2022-09-09T10:39:16.495Z,18.30
2022-09-09T10:42:19.233Z,18.20
2022-09-09T10:45:00.980Z,18.30
2022-09-09T10:47:31.473Z,18.50
2022-09-09T10:50:17.352Z,18.80
2022-09-09T10:52:56.273Z,19.00
2022-09-09T10:55:30.040Z,19.10
2022-09-09T10:57:58.517Z,19.10
2022-09-09T11:00:32.694Z,19.00
2022-09-09T11:03:03.243Z,18.80
2022-09-09T11:05:41.109Z,18.70
2022-09-09T11:11:01.536Z,18.00
2022-09-09T11:13:55.410Z,17.60
2022-09-09T11:16:35.724Z,17.40
2022-09-09T11:19:36.763Z,17.30
2022-09-09T11:22:15.833Z,17.30
2022-09-09T11:24:55.607Z,17.40
2022-09-09T11:27:26.203Z,17.40
2022-09-09T11:30:44.203Z,17.40
2022-09-09T11:33:34.363Z,17.30
2022-09-09T11:36:28.717Z,17.40
2022-09-09T11:39:08.824Z,17.40
2022-09-09T11:41:37.586Z,17.30
2022-09-09T11:44:14.862Z,17.20
2022-09-09T11:46:42.498Z,17.20
2022-09-09T11:49:26.668Z,17.30
2022-09-09T11:51:53.572Z,17.50
2022-09-09T11:54:30.360Z,17.50
2022-09-09T11:56:57.781Z,17.40
2022-09-09T11:59:32.259Z,17.40
2022-09-09T12:02:15.995Z,17.60
2022-09-09T12:04:56.045Z,17.70
2022-09-09T12:07:25.506Z,17.70
2022-09-09T12:10:03.251Z,17.80
2022-09-09T12:12:34.672Z,17.80
2022-09-09T12:15:09.963Z,17.80
2022-09-09T12:17:47.764Z,17.90
2022-09-09T12:20:34.748Z,18.10
2022-09-09T12:23:20.143Z,18.40
2022-09-09T12:26:05.681Z,18.60
2022-09-09T12:28:53.132Z,18.90
2022-09-09T12:31:51.139Z,19.20
2022-09-09T12:35:10.651Z,19.40
2022-09-09T12:37:55.004Z,19.70
2022-09-09T12:40:33.327Z,20.20
2022-09-09T12:43:01.128Z,20.30
2022-09-09T12:45:32.429Z,20.50
2022-09-09T12:48:04.495Z,20.50
2022-09-09T12:50:36.105Z,20.80
2022-09-09T12:53:11.071Z,21.20
2022-09-09T12:55:39.111Z,21.60
2022-09-09T12:58:06.984Z,21.60
2022-09-09T13:00:34.544Z,21.10
2022-09-09T13:03:03.128Z,20.80
2022-09-09T13:05:35.604Z,20.50
2022-09-09T13:08:03.842Z,20.80
2022-09-09T13:10:51.679Z,21.50
2022-09-09T13:13:24.450Z,21.70
2022-09-09T13:15:56.069Z,21.90
2022-09-09T13:18:41.911Z,21.80
2022-09-09T13:21:08.707Z,21.60
2022-09-09T13:23:36.714Z,21.80
2022-09-09T13:26:24.928Z,22.30
2022-09-09T13:28:51.979Z,22.70
2022-09-09T13:31:29.202Z,23.00
2022-09-09T13:33:56.885Z,23.40
2022-09-09T13:36:34.179Z,23.80
2022-09-09T13:39:01.638Z,23.60
2022-09-09T13:41:34.433Z,23.30
2022-09-09T13:44:01.768Z,23.20
2022-09-09T13:46:46.684Z,22.70
2022-09-09T13:49:13.401Z,22.40
2022-09-09T13:51:47.577Z,22.10
2022-09-09T13:54:15.652Z,21.80
2022-09-09T13:56:42.631Z,21.60
2022-09-09T13:59:13.930Z,21.80
2022-09-09T14:01:40.678Z,22.10
2022-09-09T14:04:07.624Z,22.10
2022-09-09T14:06:38.181Z,21.80
2022-09-09T14:09:05.890Z,21.70
2022-09-09T14:11:32.573Z,22.40
2022-09-09T14:13:59.226Z,23.30
2022-09-09T14:16:28.800Z,24.00
2022-09-09T14:18:57.606Z,24.80
2022-09-09T14:21:25.373Z,25.30
2022-09-09T14:23:53.607Z,25.30
2022-09-09T14:26:22.048Z,24.50
2022-09-09T14:28:55.286Z,23.70
2022-09-09T14:31:23.045Z,23.70
2022-09-09T14:33:49.773Z,23.60
2022-09-09T14:36:16.622Z,23.50
2022-09-09T14:38:43.735Z,23.10
2022-09-09T14:41:16.058Z,22.90
2022-09-09T14:43:42.698Z,23.00
2022-09-09T14:46:10.731Z,23.30
2022-09-09T14:48:37.818Z,23.10
2022-09-09T14:51:24.130Z,22.80
2022-09-09T14:53:54.997Z,22.40
2022-09-09T14:56:24.006Z,21.80
2022-09-09T14:58:50.726Z,21.50
2022-09-09T15:01:18.809Z,21.30
2022-09-09T15:03:53.696Z,21.30
2022-09-09T15:06:21.407Z,21.30
2022-09-09T15:08:48.100Z,21.20
2022-09-09T15:11:15.304Z,21.20
2022-09-09T15:13:43.526Z,21.10
2022-09-09T15:16:12.423Z,21.10
2022-09-09T15:18:43.617Z,21.10
2022-09-09T15:21:14.504Z,21.00
2022-09-09T15:23:41.168Z,20.90
2022-09-09T15:26:07.901Z,20.80
2022-09-09T15:28:38.617Z,20.80
2022-09-09T15:31:11.863Z,20.70
2022-09-09T15:33:38.818Z,20.60
2022-09-09T15:36:23.366Z,20.50
2022-09-09T15:38:50.235Z,20.40
2022-09-09T15:41:17.303Z,20.30
2022-09-09T15:43:48.381Z,20.20
2022-09-09T15:46:18.164Z,20.10
2022-09-09T15:48:46.721Z,20.00
2022-09-09T15:51:37.911Z,20.00
2022-09-09T15:54:02.087Z,20.20
2022-09-09T15:56:31.266Z,20.20
2022-09-09T15:58:58.450Z,20.10
2022-09-09T16:01:25.892Z,20.00
2022-09-09T16:03:55.888Z,19.90
2022-09-09T16:06:23.691Z,19.60
2022-09-09T16:08:51.531Z,19.50
2022-09-09T16:11:20.769Z,19.30
2022-09-09T16:13:51.158Z,18.20
2022-09-09T16:16:20.616Z,17.40
2022-09-09T16:18:48.645Z,16.80
2022-09-09T16:21:20.574Z,16.60
2022-09-09T16:23:47.780Z,16.70
2022-09-09T16:26:15.662Z,16.90
2022-09-09T16:28:42.656Z,17.00
2022-09-09T16:31:11.394Z,17.10
2022-09-09T16:33:38.544Z,17.20
2022-09-09T16:36:09.628Z,17.20
2022-09-09T16:38:36.750Z,17.10
2022-09-09T16:41:06.064Z,17.10
2022-09-09T16:43:33.875Z,17.00
2022-09-09T16:46:03.273Z,16.90
2022-09-09T16:48:36.475Z,16.90
2022-09-09T16:51:05.815Z,16.90
2022-09-09T16:53:33.475Z,16.80
2022-09-09T16:56:09.345Z,16.90
2022-09-09T16:58:36.018Z,17.10
2022-09-09T17:01:04.070Z,17.10
2022-09-09T17:03:32.578Z,17.20
2022-09-09T17:06:02.954Z,17.20
2022-09-09T17:08:34.453Z,17.30
2022-09-09T17:11:01.559Z,17.50
2022-09-09T17:13:28.351Z,17.50
2022-09-09T17:15:57.598Z,17.60
2022-09-09T17:18:29.231Z,18.00
2022-09-09T17:20:56.005Z,17.80
2022-09-09T17:23:23.208Z,17.60
2022-09-09T17:25:58.130Z,17.40
2022-09-09T17:28:28.372Z,17.40
2022-09-09T17:30:55.239Z,17.30
2022-09-09T17:33:22.056Z,17.20
2022-09-09T17:35:50.098Z,17.20
2022-09-09T17:38:16.879Z,17.20
2022-09-09T17:40:43.861Z,17.20
2022-09-09T17:43:10.585Z,17.20
2022-09-09T17:45:37.306Z,17.10
2022-09-09T17:48:05.058Z,17.10
2022-09-09T17:50:33.766Z,17.10
2022-09-09T17:53:00.793Z,17.10
2022-09-09T17:55:27.454Z,17.10
2022-09-09T17:57:54.107Z,17.00
2022-09-09T18:00:21.031Z,17.00
2022-09-09T18:02:48.337Z,17.00
2022-09-09T18:05:16.259Z,17.00
2022-09-09T18:07:43.295Z,17.00
2022-09-09T18:10:10.452Z,17.00
2022-09-09T18:12:37.398Z,17.00
2022-09-09T18:15:05.501Z,17.00
2022-09-09T18:17:32.740Z,17.00
2022-09-09T18:19:59.463Z,16.90
2022-09-09T18:22:26.355Z,16.90
2022-09-09T18:24:53.079Z,16.90
2022-09-09T18:27:20.305Z,16.90
2022-09-09T18:29:46.954Z,16.90
2022-09-09T18:32:15.129Z,16.90
2022-09-09T18:34:41.796Z,16.90
2022-09-09T18:37:09.869Z,16.80
2022-09-09T18:39:36.605Z,16.90
2022-09-09T18:42:04.377Z,16.80
2022-09-09T18:44:32.900Z,16.80
2022-09-09T18:46:59.703Z,16.80
2022-09-09T18:49:26.575Z,16.80
2022-09-09T18:51:53.220Z,16.80
2022-09-09T18:54:24.610Z,16.80
2022-09-09T18:56:51.448Z,16.70
2022-09-09T18:59:19.719Z,16.70
2022-09-09T19:01:47.709Z,16.70
2022-09-09T19:04:14.950Z,16.70
2022-09-09T19:06:43.015Z,16.70
2022-09-09T19:09:13.759Z,16.60
2022-09-09T19:11:40.716Z,16.60
2022-09-09T19:14:10.821Z,16.60
2022-09-09T19:16:38.484Z,16.60
2022-09-09T19:19:10.278Z,16.50
2022-09-09T19:21:41.383Z,16.50
2022-09-09T19:24:18.301Z,16.50
2022-09-09T19:26:48.450Z,16.50
2022-09-09T19:29:17.158Z,16.50
2022-09-09T19:32:01.956Z,16.50
2022-09-09T19:34:31.526Z,16.40
2022-09-09T19:36:58.370Z,16.40
2022-09-09T19:39:25.084Z,16.40
2022-09-09T19:41:51.808Z,16.40
2022-09-09T19:44:18.459Z,16.40
2022-09-09T19:46:48.213Z,16.30
2022-09-09T19:49:15.600Z,16.40
2022-09-09T19:51:43.324Z,16.30
2022-09-09T19:54:12.594Z,16.30
2022-09-09T19:56:39.724Z,16.30
2022-09-09T19:59:07.196Z,16.30
2022-09-09T20:01:40.080Z,16.30
2022-09-09T20:04:07.596Z,16.30
2022-09-09T20:06:35.952Z,16.30
2022-09-09T20:09:03.100Z,16.30
2022-09-09T20:11:29.749Z,16.30
2022-09-09T20:13:56.479Z,16.30
2022-09-09T20:16:25.088Z,16.30
2022-09-09T20:18:56.507Z,16.30
2022-09-09T20:21:26.198Z,16.30
2022-09-09T20:23:53.093Z,16.20
2022-09-09T20:26:22.272Z,16.20
2022-09-09T20:28:50.390Z,16.10
2022-09-09T20:31:21.878Z,16.10
2022-09-09T20:33:48.815Z,16.00
2022-09-09T20:36:23.704Z,16.00
2022-09-09T20:38:53.044Z,16.00
2022-09-09T20:41:21.788Z,15.90
2022-09-09T20:43:52.635Z,15.90
2022-09-09T20:46:20.728Z,15.80
2022-09-09T20:48:48.035Z,15.80
2022-09-09T20:51:17.248Z,15.80
2022-09-09T20:53:44.033Z,15.80
2022-09-09T20:56:10.735Z,15.80
2022-09-09T20:58:37.638Z,15.70
2022-09-09T21:01:05.232Z,15.70
2022-09-09T21:03:36.956Z,15.70
2022-09-09T21:06:05.102Z,15.70
2022-09-09T21:08:31.851Z,15.70
2022-09-09T21:10:58.755Z,15.70
2022-09-09T21:13:25.559Z,15.70
2022-09-09T21:15:52.485Z,15.70
2022-09-09T21:18:19.392Z,15.60
2022-09-09T21:20:46.326Z,15.60
2022-09-09T21:23:13.553Z,15.60
2022-09-09T21:25:40.620Z,15.60
2022-09-09T21:28:07.412Z,15.50
2022-09-09T21:30:40.536Z,15.50
2022-09-09T21:33:10.436Z,15.50
2022-09-09T21:35:40.622Z,15.40
2022-09-09T21:38:09.646Z,15.40
2022-09-09T21:40:39.548Z,15.40
2022-09-09T21:43:06.535Z,15.40
2022-09-09T21:45:37.347Z,15.30
2022-09-09T21:48:05.331Z,15.30
2022-09-09T21:50:38.917Z,15.20
2022-09-09T21:53:06.214Z,15.10
2022-09-09T21:55:34.579Z,15.10
2022-09-09T21:58:01.255Z,15.10
2022-09-09T22:00:28.335Z,15.10
2022-09-09T22:02:55.075Z,15.00
2022-09-09T22:05:21.827Z,15.00
2022-09-09T22:07:48.559Z,14.90
2022-09-09T22:10:16.127Z,14.90
2022-09-09T22:12:42.808Z,14.80
2022-09-09T22:15:09.922Z,14.80
2022-09-09T22:17:36.575Z,14.80
2022-09-09T22:20:03.830Z,14.80
2022-09-09T22:22:30.494Z,14.80
2022-09-09T22:24:57.162Z,14.80
2022-09-09T22:27:23.906Z,14.80
2022-09-09T22:29:50.659Z,14.80
2022-09-09T22:32:17.517Z,14.90
2022-09-09T22:34:44.232Z,14.90
2022-09-09T22:37:11.232Z,14.90
2022-09-09T22:39:38.154Z,14.90
2022-09-09T22:42:06.121Z,14.90
2022-09-09T22:44:34.482Z,14.90
2022-09-09T22:47:01.508Z,14.90
2022-09-09T22:49:28.294Z,14.90
2022-09-09T22:51:55.036Z,14.90
2022-09-09T22:54:21.833Z,14.90
2022-09-09T22:56:51.625Z,14.90
2022-09-09T22:59:19.223Z,14.90
2022-09-09T23:01:46.706Z,14.90
2022-09-09T23:04:13.523Z,14.90
2022-09-09T23:06:41.258Z,14.90
2022-09-09T23:09:08.157Z,14.90
2022-09-09T23:11:36.958Z,14.90
2022-09-09T23:14:05.387Z,14.80
2022-09-09T23:16:38.287Z,14.90
2022-09-09T23:19:11.522Z,14.90
2022-09-09T23:21:38.479Z,14.80
2022-09-09T23:24:05.832Z,14.80
2022-09-09T23:26:32.996Z,14.80
2022-09-09T23:29:00.000Z,14.80
2022-09-09T23:31:29.151Z,14.80
2022-09-09T23:33:57.663Z,14.80
2022-09-09T23:36:24.835Z,14.80
2022-09-09T23:38:51.658Z,14.70
2022-09-09T23:41:21.965Z,14.70
2022-09-09T23:43:49.275Z,14.70
2022-09-09T23:46:17.265Z,14.70
2022-09-09T23:48:44.129Z,14.70
2022-09-09T23:51:17.463Z,14.70
2022-09-09T23:53:45.645Z,14.60
2022-09-09T23:56:12.671Z,14.60
2022-09-09T23:58:39.511Z,14.60
